Time;durP1;ratioP1;P1;durP2;ratioP2;P2;SDS_P1;SDS_P2;PMS_P1;PMS_P2;Temp;Humidity;BMP_temperature;BMP_pressure;BME280_temperature;BME280_humidity;BME280_pressure;Samples;Min_cycle;Max_cycle;Signal;HPM_P1;HPM_P2
2021/12/11 00:00:06;;;;;;;1.30;0.63;;;;;;;;;;4072324;28;20052;-51
2021/12/11 00:02:11;;;;;;;1.45;0.57;;;;;;;;;;4071026;28;20324;-51
2021/12/11 00:04:19;;;;;;;0.82;0.57;;;;;;;;;;4081513;28;20274;-48
2021/12/11 00:06:26;;;;;;;1.85;0.47;;;;;;;;;;4081073;28;21244;-47
2021/12/11 00:08:30;;;;;;;1.17;0.52;;;;;;;;;;4076529;28;21626;-48
2021/12/11 00:10:35;;;;;;;1.45;0.55;;;;;;;;;;4071198;28;21519;-47
2021/12/11 00:12:44;;;;;;;2.40;0.65;;;;;;;;;;4075016;28;20049;-50
2021/12/11 00:14:48;;;;;;;0.93;0.55;;;;;;;;;;4069929;28;20800;-49
2021/12/11 00:16:51;;;;;;;2.85;0.60;;;;;;;;;;4077969;28;20063;-48
2021/12/11 00:18:54;;;;;;;0.75;0.43;;;;;;;;;;4077305;28;20045;-50
2021/12/11 00:20:55;;;;;;;;;;;;;;;;;;4073900;28;20508;-51
2021/12/11 00:22:58;;;;;;;1.27;0.50;;;;;;;;;;4071353;28;21012;-47
2021/12/11 00:25:05;;;;;;;0.77;0.52;;;;;;;;;;4083704;28;20169;-48
2021/12/11 00:27:09;;;;;;;0.45;0.30;;;;;;;;;;4077723;28;22070;-48
2021/12/11 00:29:13;;;;;;;2.58;0.50;;;;;;;;;;4075130;28;20184;-49
2021/12/11 00:31:16;;;;;;;0.50;0.30;;;;;;;;;;4073362;28;20100;-47
2021/12/11 00:33:19;;;;;;;1.17;0.50;;;;;;;;;;4079931;28;20769;-48
2021/12/11 00:35:23;;;;;;;1.95;0.60;;;;;;;;;;4079966;28;20714;-49
2021/12/11 00:37:26;;;;;;;0.82;0.40;;;;;;;;;;4071554;28;20045;-47
2021/12/11 00:39:29;;;;;;;2.38;0.52;;;;;;;;;;4075462;28;20075;-46
2021/12/11 00:41:33;;;;;;;1.23;0.30;;;;;;;;;;4078948;28;20057;-45
2021/12/11 00:43:36;;;;;;;1.27;0.50;;;;;;;;;;4082652;28;20137;-48
2021/12/11 00:45:39;;;;;;;1.00;0.45;;;;;;;;;;4075304;28;20072;-49
2021/12/11 00:47:46;;;;;;;1.77;0.60;;;;;;;;;;4077117;28;20870;-48
2021/12/11 00:49:54;;;;;;;1.20;0.63;;;;;;;;;;4081044;28;20049;-50
2021/12/11 00:51:56;;;;;;;1.30;0.50;;;;;;;;;;4084261;28;20944;-48
2021/12/11 00:53:59;;;;;;;0.63;0.40;;;;;;;;;;4080474;28;21813;-45
2021/12/11 00:56:01;;;;;;;;;;;;;;;;;;4079469;28;20125;-48
2021/12/11 00:58:11;;;;;;;2.40;0.68;;;;;;;;;;4078688;28;19935;-48
2021/12/11 01:02:13;;;;;;;0.75;0.60;;;;;;;;;;4128018;27;20983;-50
2021/12/11 01:04:20;;;;;;;0.82;0.55;;;;;;;;;;4124131;28;20071;-47
2021/12/11 01:06:45;;;;;;;0.85;0.40;;;;;;;;;;4124476;28;20803;-51
2021/12/11 01:08:52;;;;;;;0.82;0.50;;;;;;;;;;4124106;28;21684;-49
2021/12/11 01:11:01;;;;;;;0.93;0.45;;;;;;;;;;4128155;28;20043;-48
2021/12/11 01:13:05;;;;;;;1.05;0.50;;;;;;;;;;4126177;28;20043;-49
2021/12/11 01:15:13;;;;;;;1.15;0.50;;;;;;;;;;4129136;28;20052;-46
2021/12/11 01:17:38;;;;;;;0.65;0.40;;;;;;;;;;4129196;28;20173;-52
2021/12/11 01:19:44;;;;;;;1.02;0.77;;;;;;;;;;4131958;28;20121;-48
2021/12/11 01:22:00;;;;;;;1.25;0.50;;;;;;;;;;4127066;28;20059;-52
2021/12/11 01:24:28;;;;;;;1.13;0.40;;;;;;;;;;4125875;28;20091;-51
2021/12/11 01:26:30;;;;;;;1.00;0.50;;;;;;;;;;4128527;28;20607;-48
2021/12/11 01:28:32;;;;;;;0.93;0.60;;;;;;;;;;4126431;28;20626;-46
2021/12/11 01:30:36;;;;;;;1.42;0.50;;;;;;;;;;4123638;28;20208;-48
2021/12/11 01:32:38;;;;;;;0.68;0.45;;;;;;;;;;4123478;28;20051;-48
2021/12/11 01:34:40;;;;;;;1.42;0.60;;;;;;;;;;4130667;28;20048;-48
2021/12/11 01:36:43;;;;;;;1.00;0.40;;;;;;;;;;4125925;28;21903;-49
2021/12/11 01:38:45;;;;;;;0.30;0.30;;;;;;;;;;4125999;28;20158;-52
2021/12/11 01:40:48;;;;;;;0.63;0.40;;;;;;;;;;4125293;28;20395;-49
2021/12/11 01:42:50;;;;;;;0.90;0.40;;;;;;;;;;4134676;28;20671;-51
2021/12/11 01:44:54;;;;;;;1.30;0.50;;;;;;;;;;4126194;28;20058;-48
2021/12/11 01:46:55;;;;;;;;;;;;;;;;;;4122795;28;20126;-48
2021/12/11 01:49:01;;;;;;;0.70;0.50;;;;;;;;;;4124924;28;19927;-49
2021/12/11 01:51:05;;;;;;;0.52;0.40;;;;;;;;;;4128829;27;21147;-52
2021/12/11 01:53:12;;;;;;;0.50;0.50;;;;;;;;;;4118459;28;21667;-51
2021/12/11 01:55:36;;;;;;;1.27;0.43;;;;;;;;;;4103835;28;20052;-48
2021/12/11 01:57:38;;;;;;;1.25;0.45;;;;;;;;;;4103371;28;21098;-52
2021/12/11 01:59:42;;;;;;;0.57;0.45;;;;;;;;;;4100679;28;20530;-48
2021/12/11 02:01:47;;;;;;;0.73;0.40;;;;;;;;;;4103083;28;20194;-51
2021/12/11 02:03:50;;;;;;;0.60;0.52;;;;;;;;;;4102689;28;20137;-52
2021/12/11 02:05:52;;;;;;;0.40;0.30;;;;;;;;;;4111938;28;20995;-49
2021/12/11 02:07:56;;;;;;;0.30;0.30;;;;;;;;;;4102050;28;20074;-50
2021/12/11 02:10:01;;;;;;;0.68;0.30;;;;;;;;;;4103839;28;22224;-52
2021/12/11 02:12:12;;;;;;;0.75;0.50;;;;;;;;;;4100085;28;20579;-49
2021/12/11 02:14:19;;;;;;;0.98;0.40;;;;;;;;;;4094737;28;20082;-50
2021/12/11 02:16:38;;;;;;;0.50;0.30;;;;;;;;;;4100464;28;20429;-49
2021/12/11 02:18:44;;;;;;;0.90;0.40;;;;;;;;;;4093140;28;20045;-51
2021/12/11 02:20:53;;;;;;;0.85;0.40;;;;;;;;;;4096181;28;20524;-52
2021/12/11 02:22:55;;;;;;;0.73;0.40;;;;;;;;;;4097308;28;20597;-45
2021/12/11 02:25:00;;;;;;;0.43;0.40;;;;;;;;;;4094354;28;20175;-49
2021/12/11 02:27:07;;;;;;;0.40;0.40;;;;;;;;;;4089732;28;20905;-54
2021/12/11 02:29:12;;;;;;;0.85;0.40;;;;;;;;;;4093428;28;20041;-47
2021/12/11 02:31:14;;;;;;;1.38;0.60;;;;;;;;;;4093371;28;20153;-52
2021/12/11 02:33:18;;;;;;;0.55;0.55;;;;;;;;;;4101244;28;20037;-50
2021/12/11 02:35:25;;;;;;;0.45;0.30;;;;;;;;;;4091239;28;22224;-52
2021/12/11 02:37:38;;;;;;;0.75;0.50;;;;;;;;;;4092923;28;20744;-50
2021/12/11 02:39:46;;;;;;;0.88;0.50;;;;;;;;;;4092172;28;21099;-51
2021/12/11 02:41:51;;;;;;;1.30;0.57;;;;;;;;;;4075122;28;20095;-52
2021/12/11 02:43:55;;;;;;;0.93;0.50;;;;;;;;;;4093171;28;20082;-49
2021/12/11 02:46:00;;;;;;;0.95;0.50;;;;;;;;;;4099397;28;20063;-48
2021/12/11 02:48:08;;;;;;;1.10;0.77;;;;;;;;;;4097854;28;20063;-47
2021/12/11 02:50:12;;;;;;;1.50;0.60;;;;;;;;;;4092824;28;20063;-51
2021/12/11 02:52:18;;;;;;;0.70;0.70;;;;;;;;;;4092463;28;20079;-52
2021/12/11 02:54:28;;;;;;;0.80;0.57;;;;;;;;;;4092818;28;20805;-52
2021/12/11 02:56:34;;;;;;;1.92;0.75;;;;;;;;;;4093377;28;20052;-51
2021/12/11 02:58:41;;;;;;;1.75;0.80;;;;;;;;;;4093390;28;20048;-50
2021/12/11 03:00:46;;;;;;;0.77;0.50;;;;;;;;;;4100285;28;20162;-48
2021/12/11 03:02:51;;;;;;;0.50;0.50;;;;;;;;;;4090048;28;20162;-49
2021/12/11 03:05:04;;;;;;;0.88;0.50;;;;;;;;;;4093111;28;20052;-46
2021/12/11 03:07:09;;;;;;;0.90;0.70;;;;;;;;;;4091842;28;20056;-47
2021/12/11 03:09:13;;;;;;;1.58;0.77;;;;;;;;;;4089705;28;20052;-50
2021/12/11 03:11:16;;;;;;;1.10;0.40;;;;;;;;;;4094829;28;21102;-49
2021/12/11 03:13:19;;;;;;;1.08;0.50;;;;;;;;;;4098985;28;21470;-51
2021/12/11 03:15:21;;;;;;;0.50;0.45;;;;;;;;;;4087978;28;20519;-47
2021/12/11 03:17:23;;;;;;;0.70;0.50;;;;;;;;;;4089163;28;20048;-48
2021/12/11 03:19:31;;;;;;;0.75;0.45;;;;;;;;;;4099008;28;20068;-52
2021/12/11 03:21:33;;;;;;;0.50;0.50;;;;;;;;;;4097843;28;20245;-50
2021/12/11 03:23:35;;;;;;;0.68;0.50;;;21.40;59.40;;;;;;4089394;28;20167;-47
2021/12/11 03:25:39;;;;;;;0.70;0.60;;;22.10;59.10;;;;;;4089304;28;20056;-53
2021/12/11 03:27:42;;;;;;;0.70;0.60;;;22.10;59.00;;;;;;4093499;28;20052;-54
2021/12/11 03:29:45;;;;;;;0.70;0.50;;;22.10;59.00;;;;;;4097839;28;20056;-50
2021/12/11 03:31:48;;;;;;;0.90;0.55;;;22.10;59.00;;;;;;4090074;28;20091;-48
2021/12/11 03:33:56;;;;;;;0.35;0.32;;;22.10;59.00;;;;;;4090143;28;20057;-49
2021/12/11 03:35:59;;;;;;;1.80;0.57;;;22.10;58.90;;;;;;4091233;28;20048;-50
2021/12/11 03:38:02;;;;;;;0.50;0.50;;;22.10;59.00;;;;;;4098724;28;20056;-47
2021/12/11 03:40:07;;;;;;;2.05;0.60;;;22.20;58.90;;;;;;4090936;28;21029;-51
2021/12/11 03:42:17;;;;;;;0.35;0.35;;;22.20;59.00;;;;;;4089928;28;20875;-50
2021/12/11 03:44:20;;;;;;;0.85;0.50;;;22.20;58.90;;;;;;4088227;28;20049;-51
2021/12/11 03:46:22;;;;;;;1.13;0.50;;;22.20;59.00;;;;;;4089891;28;20056;-47
2021/12/11 03:48:30;;;;;;;0.50;0.32;;;22.20;58.80;;;;;;4093570;28;22027;-47
2021/12/11 03:50:33;;;;;;;0.45;0.40;;;22.20;58.80;;;;;;4096286;28;20135;-46
2021/12/11 03:52:35;;;;;;;0.95;0.50;;;22.30;58.80;;;;;;4087886;28;21203;-50
2021/12/11 03:54:40;;;;;;;0.40;0.40;;;22.30;58.80;;;;;;4091009;28;20055;-48
2021/12/11 03:56:43;;;;;;;0.40;0.40;;;22.30;58.70;;;;;;4094556;28;20049;-52
2021/12/11 03:58:51;;;;;;;0.28;0.28;;;22.30;58.70;;;;;;4094930;28;20064;-52
2021/12/11 04:02:22;;;;;;;0.85;0.45;;;22.40;58.20;;;;;;4122029;27;20505;-46
2021/12/11 04:04:34;;;;;;;0.45;0.40;;;22.30;58.70;;;;;;4122135;28;21986;-53
2021/12/11 04:06:36;;;;;;;0.88;0.45;;;22.40;58.70;;;;;;4123404;28;21036;-50
2021/12/11 04:08:42;;;;;;;0.98;0.50;;;22.40;58.70;;;;;;4110694;28;20487;-49
2021/12/11 04:10:46;;;;;;;1.13;0.40;;;22.40;58.80;;;;;;4116484;28;22048;-48
2021/12/11 04:12:48;;;;;;;;;;;22.40;59.00;;;;;;4099778;28;20080;-52
2021/12/11 04:14:52;;;;;;;0.63;0.50;;;22.40;58.70;;;;;;4102667;28;20047;-50
2021/12/11 04:16:54;;;;;;;0.95;0.40;;;22.40;58.70;;;;;;4108513;28;20534;-50
2021/12/11 04:18:57;;;;;;;0.60;0.50;;;22.40;58.60;;;;;;4119172;28;20455;-51
2021/12/11 04:20:59;;;;;;;1.63;0.50;;;22.40;58.60;;;;;;4101856;28;20365;-48
2021/12/11 04:23:03;;;;;;;0.40;0.40;;;22.40;58.60;;;;;;4122635;28;21277;-51
2021/12/11 04:25:09;;;;;;;0.80;0.40;;;22.40;58.60;;;;;;4127178;28;20051;-48
2021/12/11 04:27:17;;;;;;;1.95;0.50;;;22.40;58.60;;;;;;4103967;28;20135;-48
2021/12/11 04:29:20;;;;;;;0.70;0.50;;;22.50;58.60;;;;;;4101625;28;20143;-47
2021/12/11 04:31:28;;;;;;;0.63;0.52;;;22.50;58.50;;;;;;4115304;28;20052;-50
2021/12/11 04:33:33;;;;;;;0.65;0.50;;;22.50;58.40;;;;;;4099675;28;20640;-53
2021/12/11 04:35:35;;;;;;;1.27;0.70;;;22.60;58.50;;;;;;4127432;28;21194;-48
2021/12/11 04:37:38;;;;;;;1.42;0.93;;;22.60;58.30;;;;;;4120345;28;21151;-49
2021/12/11 04:39:43;;;;;;;2.03;0.70;;;22.60;58.30;;;;;;4118187;28;20509;-48
2021/12/11 04:42:01;;;;;;;1.98;0.70;;;22.70;58.30;;;;;;4121672;28;20065;-47
2021/12/11 04:44:09;;;;;;;0.82;0.47;;;22.70;58.20;;;;;;4102112;28;20227;-51
2021/12/11 04:46:12;;;;;;;1.88;0.73;;;22.70;58.10;;;;;;4120473;28;20121;-53
2021/12/11 04:48:38;;;;;;;1.65;0.80;;;22.80;58.00;;;;;;4126334;28;20052;-49
2021/12/11 04:50:50;;;;;;;0.80;0.68;;;22.80;58.00;;;;;;4121426;28;21775;-50
2021/12/11 04:52:58;;;;;;;1.30;0.73;;;22.90;58.00;;;;;;4086269;28;20684;-53
2021/12/11 04:55:21;;;;;;;1.42;0.77;;;23.00;57.80;;;;;;4106520;28;20056;-50
2021/12/11 05:02:05;;;;;;;1.58;0.75;;;23.00;57.60;;;;;;4111919;28;20056;-50
2021/12/11 05:09:03;;;;;;;0.70;0.43;;;23.20;57.30;;;;;;4079528;28;20087;-52
2021/12/11 05:11:04;;;;;;;1.73;0.60;;;23.20;57.30;;;;;;4105030;28;20056;-50
2021/12/11 05:13:07;;;;;;;2.70;0.68;;;23.30;57.20;;;;;;4079001;28;20802;-52
2021/12/11 05:15:32;;;;;;;1.23;0.70;;;23.30;57.20;;;;;;4079880;28;20060;-53
2021/12/11 05:17:34;;;;;;;1.55;0.80;;;23.30;57.00;;;;;;4096227;28;20049;-51
2021/12/11 05:19:38;;;;;;;2.23;0.87;;;23.50;56.90;;;;;;4079596;28;20064;-49
2021/12/11 05:21:42;;;;;;;0.90;0.40;;;23.50;56.90;;;;;;4086847;28;20061;-50
2021/12/11 05:23:47;;;;;;;0.80;0.57;;;23.50;56.80;;;;;;4087692;28;20056;-52
2021/12/11 05:25:50;;;;;;;1.13;0.68;;;23.60;56.80;;;;;;4100645;28;20059;-53
2021/12/11 05:27:53;;;;;;;1.52;0.77;;;23.60;56.60;;;;;;4100372;28;20048;-50
2021/12/11 05:29:57;;;;;;;0.82;0.50;;;23.70;56.60;;;;;;4088842;28;20087;-55
2021/12/11 05:32:02;;;;;;;2.13;0.80;;;23.70;56.50;;;;;;4109568;28;20060;-47
2021/12/11 05:34:06;;;;;;;1.30;0.65;;;23.70;56.40;;;;;;4081501;28;21707;-50
2021/12/11 05:36:10;;;;;;;2.00;0.68;;;23.80;56.40;;;;;;4094092;28;20190;-50
2021/12/11 05:38:15;;;;;;;1.52;0.60;;;23.80;56.30;;;;;;4077038;28;20198;-54
2021/12/11 05:40:22;;;;;;;1.08;0.70;;;23.90;55.80;;;;;;4104037;28;20419;-49
2021/12/11 05:42:25;;;;;;;1.35;0.75;;;23.90;56.20;;;;;;4085014;28;20738;-51
2021/12/11 05:44:27;;;;;;;0.57;0.50;;;23.90;56.20;;;;;;4078759;28;20064;-49
2021/12/11 05:46:30;;;;;;;0.63;0.63;;;23.90;56.10;;;;;;4094212;28;20309;-53
2021/12/11 05:48:32;;;;;;;1.55;0.80;;;24.00;56.00;;;;;;4085310;28;20103;-53
2021/12/11 05:50:43;;;;;;;0.95;0.57;;;24.00;55.90;;;;;;4080129;28;20095;-48
2021/12/11 05:52:48;;;;;;;0.73;0.63;;;24.10;55.90;;;;;;4093196;28;20045;-48
2021/12/11 05:54:51;;;;;;;0.82;0.60;;;24.20;55.80;;;;;;4094647;28;20060;-49
2021/12/11 05:57:00;;;;;;;1.23;0.60;;;24.20;55.70;;;;;;4094821;28;20049;-50
2021/12/11 05:59:04;;;;;;;0.90;0.63;;;24.30;55.60;;;;;;4095063;28;20515;-51
2021/12/11 06:01:07;;;;;;;1.58;0.40;;;24.30;55.50;;;;;;4080714;28;21196;-53
2021/12/11 06:03:09;;;;;;;2.17;0.85;;;24.40;55.40;;;;;;4074494;28;21022;-47
2021/12/11 06:05:12;;;;;;;1.77;0.60;;;24.40;55.40;;;;;;4070590;28;20210;-51
2021/12/11 06:07:16;;;;;;;2.15;1.05;;;24.50;55.20;;;;;;4091736;28;20276;-54
2021/12/11 06:09:20;;;;;;;2.50;0.75;;;24.50;55.20;;;;;;4075891;28;21535;-51
2021/12/11 06:11:23;;;;;;;2.95;0.90;;;24.60;55.10;;;;;;4090726;28;21313;-52
2021/12/11 06:13:25;;;;;;;3.80;0.60;;;24.60;55.10;;;;;;4070339;28;20049;-50
2021/12/11 06:15:29;;;;;;;4.90;0.90;;;24.70;55.00;;;;;;4091895;28;21089;-51
2021/12/11 06:17:35;;;;;;;2.00;0.70;;;24.70;55.60;;;;;;4095679;28;20060;-51
2021/12/11 06:19:38;;;;;;;3.10;0.70;;;24.80;54.90;;;;;;4090985;28;21393;-53
2021/12/11 06:21:43;;;;;;;3.22;0.98;;;24.80;54.70;;;;;;4087274;28;20117;-52
2021/12/11 06:23:46;;;;;;;2.90;0.93;;;24.80;54.60;;;;;;4069556;28;21611;-50
2021/12/11 06:25:50;;;;;;;2.00;0.75;;;24.90;54.60;;;;;;4079081;28;20910;-55
2021/12/11 06:27:53;;;;;;;1.63;0.80;;;24.90;54.60;;;;;;4060829;28;20601;-48
2021/12/11 06:29:56;;;;;;;2.95;0.80;;;25.00;54.60;;;;;;4089478;28;20118;-52
2021/12/11 06:31:58;;;;;;;3.28;1.00;;;25.00;54.50;;;;;;4055234;28;20600;-55
2021/12/11 06:34:02;;;;;;;7.72;1.48;;;25.00;54.40;;;;;;4095915;28;21641;-46
2021/12/11 06:36:13;;;;;;;4.50;1.23;;;25.00;54.30;;;;;;4072480;28;20960;-52
2021/12/11 06:38:19;;;;;;;2.55;1.08;;;25.00;54.30;;;;;;4090674;28;20076;-50
2021/12/11 06:40:22;;;;;;;1.75;0.85;;;25.00;54.40;;;;;;4088135;28;20163;-48
2021/12/11 06:42:25;;;;;;;2.55;0.80;;;25.00;54.80;;;;;;4088980;28;20823;-49
2021/12/11 06:44:28;;;;;;;4.32;1.15;;;25.00;54.30;;;;;;4094810;28;20048;-49
2021/12/11 06:46:32;;;;;;;3.35;1.40;;;25.00;54.30;;;;;;4074021;28;20061;-48
2021/12/11 06:48:36;;;;;;;3.88;1.17;;;24.90;54.30;;;;;;4087920;28;21130;-48
2021/12/11 06:50:38;;;;;;;4.10;1.40;;;24.90;54.40;;;;;;4054085;28;20197;-48
2021/12/11 06:52:41;;;;;;;6.43;1.23;;;24.90;54.40;;;;;;4079867;28;20053;-53
2021/12/11 06:54:44;;;;;;;2.90;0.98;;;24.90;54.40;;;;;;4091989;28;20175;-52
2021/12/11 06:56:48;;;;;;;4.20;1.42;;;24.90;54.30;;;;;;4069496;28;20060;-50
2021/12/11 06:58:52;;;;;;;2.90;1.17;;;24.90;54.40;;;;;;4088508;28;20079;-51
2021/12/11 07:02:16;;;;;;;3.05;0.95;;;24.90;53.80;;;;;;4135074;27;20119;-49
2021/12/11 07:04:18;;;;;;;1.60;0.85;;;24.90;54.30;;;;;;4101198;28;20781;-52
2021/12/11 07:06:21;;;;;;;2.60;1.27;;;24.90;54.40;;;;;;4107243;28;20052;-53
2021/12/11 07:08:26;;;;;;;3.20;0.93;;;24.80;54.30;;;;;;4118411;28;20051;-52
2021/12/11 07:10:28;;;;;;;2.40;1.02;;;24.80;54.40;;;;;;4118946;28;20039;-50
2021/12/11 07:12:31;;;;;;;2.93;1.20;;;24.80;54.40;;;;;;4102545;28;20052;-50
2021/12/11 07:14:33;;;;;;;1.65;0.68;;;24.80;54.40;;;;;;4125909;28;20043;-52
2021/12/11 07:16:36;;;;;;;1.37;0.70;;;24.80;54.50;;;;;;4118849;28;20055;-52
2021/12/11 07:18:39;;;;;;;1.67;0.70;;;24.80;54.50;;;;;;4115300;28;22134;-53
2021/12/11 07:20:42;;;;;;;2.28;0.90;;;24.80;54.50;;;;;;4105637;28;20063;-51
2021/12/11 07:22:45;;;;;;;1.75;0.60;;;24.80;54.60;;;;;;4122133;28;20052;-51
2021/12/11 07:24:52;;;;;;;;;;;24.80;54.60;;;;;;4118606;28;20980;-50
2021/12/11 07:26:54;;;;;;;2.50;0.90;;;24.80;54.80;;;;;;4117136;28;19935;-53
2021/12/11 07:29:02;;;;;;;2.77;0.60;;;24.70;54.70;;;;;;4121187;28;20051;-54
2021/12/11 07:31:04;;;;;;;2.20;0.70;;;24.70;54.70;;;;;;4107291;28;21013;-54
2021/12/11 07:33:07;;;;;;;1.10;0.60;;;24.70;54.80;;;;;;4115977;28;21992;-50
2021/12/11 07:35:09;;;;;;;;;;;24.70;54.90;;;;;;4098150;28;20090;-55
2021/12/11 07:37:12;;;;;;;1.67;0.60;;;24.60;54.80;;;;;;4102876;28;19932;-51
2021/12/11 07:39:17;;;;;;;2.22;0.70;;;24.60;54.80;;;;;;4106476;28;20802;-53
2021/12/11 07:41:20;;;;;;;1.73;0.68;;;24.70;55.50;;;;;;4119680;28;21805;-55
2021/12/11 07:43:24;;;;;;;2.05;0.75;;;24.60;54.90;;;;;;4117173;28;20080;-53
2021/12/11 07:45:29;;;;;;;1.85;0.50;;;24.60;54.90;;;;;;4114872;28;20150;-51
2021/12/11 07:47:32;;;;;;;1.85;0.57;;;24.60;54.90;;;;;;4107239;28;20044;-51
2021/12/11 07:49:34;;;;;;;1.70;0.75;;;24.60;54.90;;;;;;4121426;28;20066;-53
2021/12/11 07:51:38;;;;;;;2.93;0.63;;;24.60;55.00;;;;;;4116414;28;20880;-53
2021/12/11 07:53:41;;;;;;;2.00;0.93;;;24.50;55.00;;;;;;4095596;28;20061;-54
2021/12/11 07:55:43;;;;;;;2.50;0.95;;;24.60;55.10;;;;;;4103181;28;20887;-52
2021/12/11 07:57:46;;;;;;;0.82;0.43;;;24.50;55.10;;;;;;4100941;28;21445;-53
2021/12/11 07:59:48;;;;;;;0.52;0.50;;;24.50;55.20;;;;;;4085783;28;20120;-50
2021/12/11 08:01:53;;;;;;;1.35;0.52;;;24.50;55.20;;;;;;4087295;28;20094;-51
2021/12/11 08:03:59;;;;;;;2.40;0.63;;;24.50;55.20;;;;;;4091697;28;20044;-48
2021/12/11 08:06:02;;;;;;;1.42;0.50;;;24.40;55.20;;;;;;4103241;28;22123;-48
2021/12/11 08:08:06;;;;;;;0.85;0.70;;;24.40;55.20;;;;;;4103065;28;20049;-51
2021/12/11 08:10:13;;;;;;;1.13;0.60;;;24.40;55.30;;;;;;4082682;28;20353;-52
2021/12/11 08:12:15;;;;;;;1.70;0.60;;;24.40;55.30;;;;;;4103048;28;20080;-48
2021/12/11 08:14:18;;;;;;;0.67;0.67;;;24.40;55.30;;;;;;4092467;28;20694;-53
2021/12/11 08:16:26;;;;;;;1.00;0.73;;;24.40;55.40;;;;;;4091505;28;20054;-50
2021/12/11 08:18:28;;;;;;;2.00;0.70;;;24.40;55.40;;;;;;4071753;28;20080;-50
2021/12/11 08:20:33;;;;;;;1.37;0.70;;;24.30;55.40;;;;;;4075927;28;20119;-52
2021/12/11 08:22:35;;;;;;;0.57;0.40;;;24.30;55.40;;;;;;4079101;28;20714;-46
2021/12/11 08:24:39;;;;;;;1.03;0.60;;;24.30;55.40;;;;;;4089110;28;20665;-51
2021/12/11 08:26:42;;;;;;;2.83;0.70;;;24.30;55.80;;;;;;4089087;28;22045;-48
2021/12/11 08:28:44;;;;;;;1.50;0.70;;;24.20;55.50;;;;;;4073978;28;20540;-55
2021/12/11 08:30:49;;;;;;;1.75;0.68;;;24.20;55.50;;;;;;4097416;28;21652;-53
2021/12/11 08:32:51;;;;;;;1.50;0.73;;;24.20;55.50;;;;;;4088638;28;20140;-51
2021/12/11 08:34:54;;;;;;;1.52;0.57;;;24.20;55.50;;;;;;4087706;28;20048;-49
2021/12/11 08:36:57;;;;;;;1.08;0.60;;;24.20;55.50;;;;;;4090678;28;20060;-55
2021/12/11 08:38:59;;;;;;;;;;;24.20;55.50;;;;;;4096926;28;20061;-54
2021/12/11 08:41:04;;;;;;;1.13;0.70;;;24.20;55.60;;;;;;4087692;28;20001;-52
2021/12/11 08:43:08;;;;;;;0.52;0.40;;;24.10;55.50;;;;;;4088552;28;20056;-53
2021/12/11 08:45:20;;;;;;;1.40;0.70;;;24.10;55.60;;;;;;4090829;28;20063;-53
2021/12/11 08:47:24;;;;;;;1.40;0.90;;;24.10;55.60;;;;;;4076514;28;21454;-54
2021/12/11 08:49:28;;;;;;;;;;;24.10;56.30;;;;;;4079623;28;20135;-48
2021/12/11 08:51:42;;;;;;;1.13;0.60;;;24.00;55.60;;;;;;4090564;28;19963;-48
2021/12/11 08:53:45;;;;;;;1.80;0.80;;;24.00;55.80;;;;;;4093567;28;21533;-45
2021/12/11 08:55:53;;;;;;;1.58;0.73;;;24.00;55.60;;;;;;4055735;28;20852;-51
2021/12/11 08:57:56;;;;;;;1.77;0.70;;;24.00;55.70;;;;;;4069133;28;20077;-51
2021/12/11 09:00:06;;;;;;;1.90;0.60;;;24.00;55.70;;;;;;4071910;28;22230;-54
2021/12/11 09:02:21;;;;;;;1.58;0.65;;;24.00;55.80;;;;;;4077816;28;20134;-52
2021/12/11 09:04:44;;;;;;;0.85;0.50;;;24.00;55.80;;;;;;4073206;28;20045;-54
2021/12/11 09:07:21;;;;;;;1.10;0.50;;;23.90;55.80;;;;;;4073563;28;20049;-53
2021/12/11 09:09:33;;;;;;;2.13;0.68;;;23.90;55.70;;;;;;4060764;28;20172;-49
2021/12/11 09:11:52;;;;;;;1.60;0.60;;;23.90;55.90;;;;;;4075518;28;20045;-51
2021/12/11 09:14:19;;;;;;;1.40;0.50;;;23.90;55.90;;;;;;4074085;28;20064;-53
2021/12/11 09:16:32;;;;;;;0.95;0.43;;;23.90;55.90;;;;;;4081548;28;20084;-52
2021/12/11 09:19:00;;;;;;;1.15;0.50;;;23.80;55.90;;;;;;4082265;28;20041;-49
2021/12/11 09:21:11;;;;;;;1.23;0.47;;;23.80;55.90;;;;;;4057623;28;20775;-50
2021/12/11 09:23:26;;;;;;;1.70;0.73;;;23.80;56.70;;;;;;4069768;28;20053;-54
2021/12/11 09:25:34;;;;;;;1.17;0.70;;;23.80;56.10;;;;;;4074644;28;20198;-48
2021/12/11 09:27:50;;;;;;;1.02;0.50;;;23.80;56.20;;;;;;4076509;28;20104;-51
2021/12/11 09:29:58;;;;;;;0.68;0.40;;;23.80;56.20;;;;;;4079008;28;21553;-52
2021/12/11 09:32:24;;;;;;;0.93;0.50;;;23.80;56.20;;;;;;4075123;28;20053;-51
2021/12/11 09:34:35;;;;;;;0.80;0.55;;;23.80;56.30;;;;;;4084528;28;20053;-53
2021/12/11 09:36:41;;;;;;;2.35;0.80;;;23.80;56.30;;;;;;4067139;28;22086;-54
2021/12/11 09:38:48;;;;;;;1.15;0.60;;;23.80;56.30;;;;;;4081814;28;20849;-51
2021/12/11 09:40:53;;;;;;;1.30;0.68;;;23.70;56.30;;;;;;4077294;28;20723;-50
2021/12/11 09:42:55;;;;;;;1.42;0.57;;;23.70;56.30;;;;;;4080794;28;20049;-53
2021/12/11 09:45:08;;;;;;;0.70;0.52;;;23.70;56.40;;;;;;4085624;28;20059;-51
2021/12/11 09:47:41;;;;;;;1.35;0.45;;;23.70;56.40;;;;;;4065371;28;20057;-54
2021/12/11 09:49:52;;;;;;;1.08;0.60;;;23.70;56.40;;;;;;4086400;28;20049;-51
2021/12/11 09:52:02;;;;;;;1.55;0.55;;;23.70;56.40;;;;;;4066187;28;21324;-55
2021/12/11 09:54:17;;;;;;;1.55;0.63;;;23.60;56.40;;;;;;4086786;28;20049;-52
2021/12/11 09:56:29;;;;;;;0.95;0.47;;;23.60;56.60;;;;;;4082908;28;20049;-52
2021/12/11 09:58:35;;;;;;;0.30;0.30;;;23.60;56.50;;;;;;4087185;28;20041;-47
2021/12/11 10:00:43;;;;;;;1.45;0.52;;;23.60;56.60;;;;;;4084974;28;20712;-51
2021/12/11 10:02:46;;;;;;;0.65;0.50;;;23.60;56.60;;;;;;4094558;28;21157;-54
2021/12/11 10:05:29;;;;;;;1.08;0.50;;;23.60;56.60;;;;;;4078240;28;20056;-53
2021/12/11 10:07:38;;;;;;;1.38;0.52;;;23.60;56.70;;;;;;4093906;28;20502;-53
2021/12/11 10:09:50;;;;;;;0.75;0.40;;;23.60;56.70;;;;;;4095054;28;20470;-54
2021/12/11 10:12:17;;;;;;;1.20;0.40;;;23.60;56.70;;;;;;4079130;28;20052;-48
2021/12/11 10:14:24;;;;;;;0.68;0.57;;;23.50;56.70;;;;;;4074236;28;20476;-54
2021/12/11 10:16:34;;;;;;;1.50;0.50;;;23.50;56.70;;;;;;4095458;28;20079;-54
2021/12/11 10:18:38;;;;;;;1.10;0.63;;;23.50;56.80;;;;;;4091872;28;20137;-54
2021/12/11 10:20:43;;;;;;;0.55;0.43;;;23.50;56.90;;;;;;4074800;28;20060;-51
2021/12/11 10:22:47;;;;;;;1.30;0.70;;;23.50;56.90;;;;;;4056908;28;20053;-52
2021/12/11 10:24:50;;;;;;;0.60;0.47;;;23.50;56.90;;;;;;4078639;28;20088;-49
2021/12/11 10:26:54;;;;;;;;;;;23.50;56.90;;;;;;4089778;28;20055;-51
2021/12/11 10:29:01;;;;;;;0.63;0.52;;;23.50;57.00;;;;;;4085951;28;19928;-54
2021/12/11 10:31:15;;;;;;;0.55;0.35;;;23.50;57.00;;;;;;4072738;28;20081;-54
2021/12/11 10:33:19;;;;;;;1.05;0.70;;;23.40;57.00;;;;;;4064964;28;21697;-53
2021/12/11 10:35:31;;;;;;;0.40;0.40;;;23.40;57.10;;;;;;4074918;28;20214;-53
2021/12/11 10:37:38;;;;;;;1.38;0.70;;;23.40;57.20;;;;;;4094791;28;20800;-51
2021/12/11 10:39:44;;;;;;;0.82;0.40;;;23.40;57.20;;;;;;4074969;28;20583;-52
2021/12/11 10:41:47;;;;;;;0.47;0.47;;;23.40;57.20;;;;;;4070035;28;20231;-50
2021/12/11 10:44:03;;;;;;;0.70;0.50;;;23.40;57.30;;;;;;4079914;28;20062;-54
2021/12/11 10:46:06;;;;;;;1.40;0.60;;;23.40;57.20;;;;;;4070290;28;20273;-52
2021/12/11 10:48:12;;;;;;;0.82;0.60;;;23.30;57.40;;;;;;4060309;28;20157;-53
2021/12/11 10:50:25;;;;;;;1.42;0.60;;;23.30;57.30;;;;;;4091028;28;21071;-52
2021/12/11 10:52:30;;;;;;;1.45;0.45;;;23.30;57.40;;;;;;4068528;28;20106;-55
2021/12/11 10:54:32;;;;;;;1.08;0.55;;;23.30;57.40;;;;;;4076982;28;20053;-53
2021/12/11 10:56:35;;;;;;;0.75;0.40;;;23.30;57.50;;;;;;4070106;28;20052;-54
2021/12/11 10:58:45;;;;;;;1.70;0.53;;;23.30;57.90;;;;;;4068336;28;20053;-52
2021/12/11 11:00:55;;;;;;;1.02;0.55;;;23.30;57.60;;;;;;4067304;28;20816;-55
2021/12/11 11:02:58;;;;;;;1.67;0.60;;;23.30;57.60;;;;;;4052488;28;20731;-54
2021/12/11 11:05:13;;;;;;;0.70;0.40;;;23.20;57.50;;;;;;4090855;28;20054;-52
2021/12/11 11:07:22;;;;;;;0.77;0.43;;;23.20;57.10;;;;;;4088508;28;20518;-55
2021/12/11 11:09:27;;;;;;;0.95;0.50;;;23.20;57.60;;;;;;4054704;28;20069;-54
2021/12/11 11:11:32;;;;;;;0.95;0.50;;;23.20;57.90;;;;;;4100604;28;20052;-57
2021/12/11 11:13:35;;;;;;;2.47;0.75;;;23.20;58.10;;;;;;4156928;28;20061;-53
2021/12/11 11:15:39;;;;;;;3.60;1.00;;;23.20;58.10;;;;;;4179228;28;20484;-54
2021/12/11 11:17:41;;;;;;;2.50;0.85;;;23.20;58.30;;;;;;4175581;28;20711;-53
2021/12/11 11:19:44;;;;;;;18.60;2.08;;;23.20;58.50;;;;;;4160548;28;20194;-53
2021/12/11 11:21:50;;;;;;;4.32;1.23;;;23.20;58.90;;;;;;4157805;28;20125;-49
2021/12/11 11:23:55;;;;;;;10.60;1.70;;;23.20;59.00;;;;;;4178968;28;20070;-50
2021/12/11 11:26:02;;;;;;;6.47;0.80;;;23.20;59.00;;;;;;4176644;28;20384;-50
2021/12/11 11:28:09;;;;;;;4.40;1.20;;;23.20;59.00;;;;;;4161973;28;20072;-51
2021/12/11 11:30:17;;;;;;;1.55;0.82;;;23.20;59.10;;;;;;4157844;28;20752;-55
2021/12/11 11:32:32;;;;;;;5.75;1.25;;;23.20;59.20;;;;;;4180605;28;20045;-54
2021/12/11 11:34:40;;;;;;;6.25;1.23;;;23.20;59.30;;;;;;4144259;28;20893;-53
2021/12/11 11:36:43;;;;;;;6.53;1.60;;;23.20;59.40;;;;;;4161648;28;20063;-52
2021/12/11 11:38:49;;;;;;;3.50;1.00;;;23.20;59.40;;;;;;4159391;28;20056;-55